Time;durP1;ratioP1;P1;durP2;ratioP2;P2;SDS_P1;SDS_P2;PMS_P1;PMS_P2;Temp;Humidity;BMP_temperature;BMP_pressure;BME280_temperature;BME280_humidity;BME280_pressure;Samples;Min_cycle;Max_cycle;Signal;HPM_P1;HPM_P2
2022/08/06 00:01:40;;;;;;;4.72;3.30;;;21.30;99.90;;;;;;4987338;28;20503;-72
2022/08/06 00:04:06;;;;;;;3.80;2.90;;;21.30;99.90;;;;;;4986089;28;20025;-72
2022/08/06 00:06:31;;;;;;;5.35;3.15;;;21.20;99.90;;;;;;4988265;28;20027;-72
2022/08/06 00:08:57;;;;;;;5.50;2.63;;;21.20;99.90;;;;;;4989933;28;20065;-72
2022/08/06 00:11:23;;;;;;;4.47;2.55;;;21.20;99.90;;;;;;4988222;28;20070;-72
2022/08/06 00:13:48;;;;;;;4.80;2.45;;;21.20;99.90;;;;;;4991608;28;20030;-72
2022/08/06 00:16:14;;;;;;;5.00;2.60;;;21.10;99.90;;;;;;4987265;28;20109;-72
2022/08/06 00:18:40;;;;;;;2.63;2.10;;;21.10;99.90;;;;;;4985489;28;20022;-73
2022/08/06 00:21:06;;;;;;;3.35;2.42;;;21.10;99.90;;;;;;4989236;28;20080;-72
2022/08/06 00:23:31;;;;;;;4.85;2.70;;;21.10;99.90;;;;;;4989634;28;20069;-72
2022/08/06 00:25:57;;;;;;;3.50;2.35;;;21.00;99.90;;;;;;4991779;28;20041;-72
2022/08/06 00:28:25;;;;;;;6.38;3.03;;;21.00;99.90;;;;;;4986631;28;20038;-72
2022/08/06 00:30:51;;;;;;;4.70;2.83;;;21.00;99.90;;;;;;4986986;28;20026;-72
2022/08/06 00:33:17;;;;;;;3.92;2.30;;;21.00;99.90;;;;;;4986388;28;20026;-73
2022/08/06 00:35:43;;;;;;;3.88;2.65;;;20.90;99.90;;;;;;4987826;28;20018;-72
2022/08/06 00:38:09;;;;;;;3.45;2.40;;;20.90;99.90;;;;;;5019648;23;20100;-70
2022/08/06 00:40:35;;;;;;;4.57;2.55;;;20.90;99.90;;;;;;4988768;28;20039;-70
2022/08/06 00:43:04;;;;;;;4.70;2.28;;;20.90;99.90;;;;;;4988945;28;20089;-70
2022/08/06 00:45:32;;;;;;;4.28;2.20;;;20.90;99.90;;;;;;4985800;28;20465;-70
2022/08/06 00:47:59;;;;;;;2.72;2.03;;;20.80;99.90;;;;;;4997682;28;20060;-69
2022/08/06 00:50:24;;;;;;;4.00;2.33;;;20.80;99.90;;;;;;4994887;28;20507;-70
2022/08/06 00:52:50;;;;;;;5.40;2.70;;;20.70;99.90;;;;;;4994870;28;20062;-70
2022/08/06 00:55:16;;;;;;;3.75;2.28;;;20.60;99.90;;;;;;4986521;28;20069;-70
2022/08/06 00:57:45;;;;;;;3.65;2.30;;;20.60;99.90;;;;;;4990371;28;20129;-69
2022/08/06 01:00:11;;;;;;;2.67;1.98;;;20.60;99.90;;;;;;5000577;28;20019;-70
2022/08/06 01:02:36;;;;;;;4.18;2.17;;;20.60;99.90;;;;;;4990038;28;20035;-69
2022/08/06 01:05:02;;;;;;;4.82;2.08;;;20.60;99.90;;;;;;4991003;28;20572;-77
2022/08/06 01:07:28;;;;;;;3.17;2.13;;;20.60;99.90;;;;;;4991073;28;20034;-77
2022/08/06 01:09:53;;;;;;;5.65;2.05;;;20.50;99.90;;;;;;4994825;28;20033;-76
2022/08/06 01:12:19;;;;;;;4.53;2.83;;;20.50;99.90;;;;;;4992143;28;20088;-75
2022/08/06 01:14:45;;;;;;;4.60;2.70;;;20.40;99.90;;;;;;4990481;28;20035;-76
2022/08/06 01:17:27;;;;;;;2.90;2.35;;;20.30;99.90;;;;;;4996020;28;20049;-75
2022/08/06 01:20:50;;;;;;;2.85;2.30;;;20.20;99.90;;;;;;4990442;28;20283;-76
2022/08/06 01:23:42;;;;;;;4.47;2.40;;;20.20;99.90;;;;;;4951659;28;20454;-74
2022/08/06 01:26:38;;;;;;;3.88;2.42;;;20.10;99.90;;;;;;4973123;28;20526;-75
2022/08/06 01:29:09;;;;;;;2.40;2.05;;;20.10;99.90;;;;;;4981144;28;20046;-77
2022/08/06 01:31:42;;;;;;;4.45;2.35;;;20.00;99.90;;;;;;4993606;28;20026;-75
2022/08/06 01:34:13;;;;;;;4.60;2.33;;;19.90;99.90;;;;;;4992424;28;20339;-76
2022/08/06 01:36:51;;;;;;;4.38;1.80;;;19.80;99.90;;;;;;4989467;28;20042;-76
2022/08/06 01:39:19;;;;;;;5.13;2.47;;;19.80;99.90;;;;;;4987023;28;20049;-75
2022/08/06 01:41:48;;;;;;;5.90;2.40;;;19.80;99.90;;;;;;5007309;28;20117;-75
2022/08/06 01:44:21;;;;;;;3.97;1.90;;;19.70;99.90;;;;;;4990271;28;20022;-76
2022/08/06 01:46:57;;;;;;;3.22;2.15;;;19.70;99.90;;;;;;4987027;28;20080;-75
2022/08/06 01:49:25;;;;;;;4.28;2.10;;;19.70;99.90;;;;;;4990531;28;20023;-77
2022/08/06 01:51:53;;;;;;;3.08;2.20;;;19.70;99.90;;;;;;4989134;28;20049;-76
2022/08/06 01:54:21;;;;;;;2.05;1.73;;;19.60;99.90;;;;;;4995581;28;20723;-77
2022/08/06 01:56:50;;;;;;;4.85;1.70;;;19.60;99.90;;;;;;4987268;28;20026;-77
2022/08/06 01:59:18;;;;;;;6.20;2.10;;;19.50;99.90;;;;;;4996719;28;20026;-76
2022/08/06 02:01:49;;;;;;;2.72;1.77;;;19.40;99.90;;;;;;4988439;28;20022;-76
2022/08/06 02:04:17;;;;;;;4.03;1.60;;;19.30;99.90;;;;;;4992940;28;20088;-75
2022/08/06 02:06:45;;;;;;;5.18;2.00;;;19.20;99.90;;;;;;4985994;28;20042;-76
2022/08/06 02:09:17;;;;;;;3.70;1.80;;;19.10;99.90;;;;;;4989680;28;20046;-77
2022/08/06 02:12:04;;;;;;;4.32;2.10;;;19.10;99.90;;;;;;4990487;28;20529;-76
2022/08/06 02:14:32;;;;;;;4.13;1.85;;;19.00;99.90;;;;;;4994590;28;20053;-77
2022/08/06 02:16:59;;;;;;;3.45;1.85;;;19.10;99.90;;;;;;4984202;28;20069;-76
2022/08/06 02:19:28;;;;;;;7.43;3.25;;;19.10;99.90;;;;;;4974926;28;20570;-76
2022/08/06 02:21:55;;;;;;;2.40;1.80;;;19.10;99.90;;;;;;5004268;28;20487;-76
2022/08/06 02:24:23;;;;;;;4.13;1.83;;;19.10;99.90;;;;;;4987296;28;20058;-76
2022/08/06 02:26:49;;;;;;;4.53;1.95;;;19.00;99.90;;;;;;4995679;28;20038;-76
2022/08/06 02:29:18;;;;;;;2.40;2.03;;;19.00;99.90;;;;;;4991907;28;20080;-74
2022/08/06 02:31:44;;;;;;;2.80;1.70;;;19.00;99.90;;;;;;4990470;28;20036;-74
2022/08/06 02:34:11;;;;;;;4.50;1.45;;;19.00;99.90;;;;;;4996061;28;20070;-75
2022/08/06 02:36:43;;;;;;;3.08;1.50;;;19.00;99.90;;;;;;4993583;28;20061;-75
2022/08/06 02:39:22;;;;;;;4.05;1.70;;;19.00;99.90;;;;;;5006153;28;20030;-75
2022/08/06 02:42:00;;;;;;;2.80;1.60;;;19.00;99.90;;;;;;4988848;28;20086;-75
2022/08/06 02:44:48;;;;;;;4.97;2.00;;;19.00;99.90;;;;;;4993912;28;20054;-75
2022/08/06 02:47:40;;;;;;;2.40;1.95;;;19.10;99.90;;;;;;4987901;28;20498;-74
2022/08/06 02:50:08;;;;;;;3.55;1.60;;;19.10;99.90;;;;;;4982913;28;20422;-75
2022/08/06 02:52:41;;;;;;;1.73;1.38;;;19.20;99.90;;;;;;4990240;28;20542;-77
2022/08/06 02:55:11;;;;;;;2.55;1.52;;;19.20;99.90;;;;;;4988881;28;20038;-76
2022/08/06 02:57:42;;;;;;;3.30;1.70;;;19.10;99.90;;;;;;4987096;28;20034;-76
2022/08/06 03:00:09;;;;;;;5.93;1.70;;;19.20;99.90;;;;;;4988117;28;20023;-76
2022/08/06 03:02:38;;;;;;;3.30;1.77;;;19.20;99.90;;;;;;4996493;28;20570;-76
2022/08/06 03:05:15;;;;;;;4.85;2.08;;;19.20;99.90;;;;;;4991413;28;20026;-76
2022/08/06 03:07:42;;;;;;;4.03;1.83;;;19.10;99.90;;;;;;4987930;28;20030;-75
2022/08/06 03:10:08;;;;;;;5.32;1.40;;;19.10;99.90;;;;;;4998021;28;20022;-76
2022/08/06 03:12:36;;;;;;;2.53;1.40;;;19.00;99.90;;;;;;4996363;28;20023;-75
2022/08/06 03:15:04;;;;;;;3.63;1.45;;;19.00;99.90;;;;;;4994259;28;20549;-77
2022/08/06 03:17:32;;;;;;;3.00;1.85;;;19.00;99.90;;;;;;4992087;28;20038;-75
2022/08/06 03:20:01;;;;;;;3.25;1.42;;;18.90;99.90;;;;;;4989917;28;20067;-76
2022/08/06 03:22:30;;;;;;;4.05;1.80;;;18.90;99.90;;;;;;4996809;28;20423;-77
2022/08/06 03:24:57;;;;;;;2.53;1.58;;;18.90;99.90;;;;;;4994851;28;20080;-75
2022/08/06 03:27:24;;;;;;;2.22;1.40;;;18.90;99.90;;;;;;4990234;28;20030;-76
2022/08/06 03:29:51;;;;;;;3.42;1.70;;;18.90;99.90;;;;;;4988855;28;20033;-77
2022/08/06 03:32:18;;;;;;;5.40;1.40;;;18.90;99.90;;;;;;5004180;28;20060;-76
2022/08/06 03:34:44;;;;;;;2.05;1.40;;;18.90;99.90;;;;;;4998458;28;20045;-75
2022/08/06 03:37:10;;;;;;;2.80;1.60;;;18.90;99.90;;;;;;4988874;28;20038;-76
2022/08/06 03:39:39;;;;;;;3.25;1.20;;;18.90;99.90;;;;;;4992447;28;20026;-75
2022/08/06 03:42:05;;;;;;;1.95;1.40;;;18.90;99.90;;;;;;4989060;28;20487;-75
2022/08/06 03:44:31;;;;;;;2.78;1.40;;;18.90;99.90;;;;;;4994028;28;20685;-75
2022/08/06 03:47:20;;;;;;;2.67;1.63;;;18.90;99.90;;;;;;4990643;28;20057;-76
2022/08/06 03:49:53;;;;;;;6.15;2.25;;;18.90;99.90;;;;;;4986950;28;20026;-76
2022/08/06 03:52:23;;;;;;;6.38;1.92;;;18.90;99.90;;;;;;4988408;28;20121;-76
2022/08/06 03:54:52;;;;;;;2.47;1.40;;;18.90;99.90;;;;;;4996115;28;20023;-75
2022/08/06 03:57:22;;;;;;;2.70;1.27;;;18.90;99.90;;;;;;5008057;28;20029;-76
2022/08/06 03:59:52;;;;;;;3.30;1.92;;;18.90;99.90;;;;;;4990797;28;20427;-76
2022/08/06 04:02:19;;;;;;;1.95;1.35;;;18.90;99.90;;;;;;4991882;28;20031;-75
2022/08/06 04:04:47;;;;;;;6.00;2.05;;;18.80;99.90;;;;;;4990802;28;20062;-76
2022/08/06 04:07:14;;;;;;;1.55;1.35;;;18.80;99.90;;;;;;4993313;28;20030;-76
2022/08/06 04:09:40;;;;;;;2.83;1.38;;;18.80;99.90;;;;;;4995433;28;20068;-76
2022/08/06 04:12:07;;;;;;;3.50;1.60;;;18.70;99.90;;;;;;4995421;28;20487;-76
2022/08/06 04:14:34;;;;;;;4.60;1.98;;;18.70;99.90;;;;;;4999318;28;20027;-76
2022/08/06 04:17:03;;;;;;;5.30;1.52;;;18.60;99.90;;;;;;4997521;28;20030;-76
2022/08/06 04:19:30;;;;;;;4.80;1.45;;;18.70;99.90;;;;;;4997414;28;20030;-76
2022/08/06 04:21:55;;;;;;;3.60;1.40;;;18.60;99.90;;;;;;4993982;28;20467;-75
2022/08/06 04:24:21;;;;;;;2.65;1.20;;;18.60;99.90;;;;;;4996410;28;20033;-75
2022/08/06 04:26:50;;;;;;;4.78;1.60;;;18.60;99.90;;;;;;4997012;28;20029;-75
2022/08/06 04:29:19;;;;;;;2.72;1.63;;;18.60;99.90;;;;;;4986979;28;20042;-76
2022/08/06 04:31:47;;;;;;;2.35;1.33;;;18.60;99.90;;;;;;4985207;28;20116;-75
2022/08/06 04:34:18;;;;;;;3.08;1.40;;;18.50;99.90;;;;;;4989756;28;20037;-76
2022/08/06 04:36:45;;;;;;;2.00;1.42;;;18.60;99.90;;;;;;4993906;28;20022;-75
2022/08/06 04:39:11;;;;;;;1.83;1.38;;;18.60;99.90;;;;;;5005295;28;20033;-75
2022/08/06 04:41:36;;;;;;;4.40;1.33;;;18.60;99.90;;;;;;4998205;28;20034;-75
2022/08/06 04:44:02;;;;;;;4.72;1.30;;;18.60;99.90;;;;;;4989743;28;20096;-76
2022/08/06 04:46:29;;;;;;;2.88;1.35;;;18.60;99.90;;;;;;4999154;28;20085;-77
2022/08/06 04:48:54;;;;;;;3.25;1.27;;;18.60;99.90;;;;;;4996045;28;20391;-77
2022/08/06 04:51:23;;;;;;;3.65;1.63;;;18.60;99.90;;;;;;5006781;28;20030;-74
2022/08/06 04:53:49;;;;;;;2.17;1.17;;;18.60;99.90;;;;;;5006363;28;20125;-74
2022/08/06 04:56:15;;;;;;;2.42;1.80;;;18.50;99.90;;;;;;5001160;28;20073;-74
2022/08/06 04:58:40;;;;;;;3.13;1.42;;;18.50;99.90;;;;;;4995356;28;20029;-75
2022/08/06 05:01:06;;;;;;;4.80;1.48;;;18.60;99.90;;;;;;4991514;28;20072;-76
2022/08/06 05:03:32;;;;;;;4.15;1.42;;;18.50;99.90;;;;;;4986735;28;20444;-75
2022/08/06 05:06:23;;;;;;;5.53;1.40;;;18.40;99.90;;;;;;4987000;28;20038;-74
2022/08/06 05:08:54;;;;;;;2.40;1.20;;;18.50;99.90;;;;;;5006634;28;20034;-75
2022/08/06 05:11:31;;;;;;;2.78;1.50;;;18.50;99.90;;;;;;4994405;28;20478;-75
2022/08/06 05:14:04;;;;;;;4.15;1.30;;;18.50;99.90;;;;;;4989434;28;20027;-75
2022/08/06 05:16:34;;;;;;;2.60;1.60;;;18.40;99.90;;;;;;4989347;28;20098;-75
2022/08/06 05:19:03;;;;;;;2.58;1.30;;;18.40;99.90;;;;;;4997790;28;20092;-76
2022/08/06 05:21:36;;;;;;;2.88;1.60;;;18.40;99.90;;;;;;5000619;28;20030;-74
2022/08/06 05:24:03;;;;;;;5.18;1.55;;;18.40;99.90;;;;;;4994915;28;20387;-75
2022/08/06 05:26:29;;;;;;;4.43;1.90;;;18.40;99.90;;;;;;4991337;28;20026;-75
2022/08/06 05:28:55;;;;;;;2.38;1.38;;;18.40;99.90;;;;;;4989900;28;20030;-75
2022/08/06 05:31:31;;;;;;;3.95;1.60;;;18.40;99.90;;;;;;4994105;28;20480;-74
2022/08/06 05:33:57;;;;;;;4.13;1.50;;;18.40;99.90;;;;;;4993868;28;20464;-75
2022/08/06 05:36:23;;;;;;;2.45;1.25;;;18.40;99.90;;;;;;4991285;28;20057;-75
2022/08/06 05:38:48;;;;;;;3.78;1.35;;;18.50;99.90;;;;;;4988054;28;20037;-75
2022/08/06 05:41:14;;;;;;;1.60;1.02;;;18.40;99.90;;;;;;4992527;28;20029;-75
2022/08/06 05:43:40;;;;;;;2.47;1.42;;;18.40;99.90;;;;;;4996864;28;20493;-75
2022/08/06 05:46:14;;;;;;;9.40;1.60;;;18.40;99.90;;;;;;4996490;28;20033;-74
2022/08/06 05:49:07;;;;;;;3.88;1.40;;;18.40;99.90;;;;;;4992059;28;20066;-74
2022/08/06 05:52:11;;;;;;;3.92;1.40;;;18.40;99.90;;;;;;4984024;28;20056;-75
2022/08/06 05:54:56;;;;;;;5.30;1.53;;;18.40;99.90;;;;;;4994173;28;20077;-75
2022/08/06 05:57:37;;;;;;;2.00;1.15;;;18.30;99.90;;;;;;4988408;28;20287;-75
2022/08/06 06:00:11;;;;;;;4.35;1.40;;;18.40;99.90;;;;;;5007186;28;20483;-75
2022/08/06 06:02:41;;;;;;;5.00;1.70;;;18.40;99.90;;;;;;4994899;28;20029;-75
2022/08/06 06:05:08;;;;;;;3.33;1.70;;;18.40;99.90;;;;;;4995280;28;20376;-74
2022/08/06 06:07:35;;;;;;;2.80;1.35;;;18.40;99.90;;;;;;4989233;28;20112;-74
2022/08/06 06:10:03;;;;;;;4.07;1.40;;;18.40;99.90;;;;;;4993146;28;20138;-74
2022/08/06 06:12:30;;;;;;;5.05;1.52;;;18.50;99.90;;;;;;5010732;28;20038;-73
2022/08/06 06:14:57;;;;;;;4.95;1.65;;;18.40;99.90;;;;;;4994237;28;20126;-74
2022/08/06 06:17:46;;;;;;;3.70;1.30;;;18.40;99.90;;;;;;4990948;28;20121;-74
2022/08/06 06:20:30;;;;;;;1.58;1.30;;;18.40;99.90;;;;;;5008552;28;20026;-74
2022/08/06 06:23:18;;;;;;;2.55;1.40;;;18.40;99.90;;;;;;4992781;28;20023;-75
2022/08/06 06:26:11;;;;;;;3.33;1.48;;;18.50;99.90;;;;;;5005775;28;20487;-74
2022/08/06 06:28:43;;;;;;;3.40;1.90;;;18.40;99.90;;;;;;4986145;28;20495;-76
2022/08/06 06:31:24;;;;;;;4.22;2.08;;;18.50;99.90;;;;;;4993044;28;20081;-75
2022/08/06 06:33:57;;;;;;;2.97;1.52;;;18.50;99.90;;;;;;5008282;28;20031;-75
2022/08/06 06:36:54;;;;;;;4.43;1.90;;;18.60;99.90;;;;;;5006307;28;20476;-75
2022/08/06 06:39:41;;;;;;;4.95;1.98;;;18.50;99.90;;;;;;4993752;28;20518;-73
2022/08/06 06:42:12;;;;;;;2.70;1.42;;;18.60;99.90;;;;;;4998180;28;20038;-73
2022/08/06 06:44:44;;;;;;;2.97;1.92;;;18.50;99.90;;;;;;4997222;28;20442;-73
2022/08/06 06:47:29;;;;;;;6.00;1.77;;;18.50;99.90;;;;;;4993644;28;20033;-72
2022/08/06 06:50:11;;;;;;;1.90;1.52;;;18.50;99.90;;;;;;4997352;28;20026;-72
2022/08/06 06:52:39;;;;;;;6.95;1.83;;;18.50;99.90;;;;;;5012526;28;20026;-73
2022/08/06 06:55:20;;;;;;;4.70;1.98;;;18.60;99.90;;;;;;4997394;28;20069;-73
2022/08/06 06:57:53;;;;;;;3.72;1.48;;;18.60;99.90;;;;;;4995902;28;20018;-73
2022/08/06 07:00:19;;;;;;;1.85;1.42;;;18.70;99.90;;;;;;4997252;28;20018;-73
2022/08/06 07:02:48;;;;;;;4.93;1.90;;;18.70;99.90;;;;;;4995843;28;20113;-73
2022/08/06 07:05:15;;;;;;;5.18;1.80;;;18.70;99.90;;;;;;4997601;28;20467;-73
2022/08/06 07:07:43;;;;;;;5.68;2.00;;;18.80;99.90;;;;;;4995935;28;20077;-73
2022/08/06 07:10:12;;;;;;;12.18;2.67;;;18.90;99.90;;;;;;4995930;28;20039;-73
2022/08/06 07:12:42;;;;;;;5.80;2.00;;;18.90;99.90;;;;;;5011728;28;20038;-73
2022/08/06 07:15:09;;;;;;;2.65;2.00;;;19.00;99.90;;;;;;4995703;28;20022;-73
2022/08/06 07:17:37;;;;;;;6.65;2.25;;;18.90;99.90;;;;;;4996518;28;20027;-73
2022/08/06 07:20:07;;;;;;;3.78;1.73;;;18.90;99.90;;;;;;4996867;28;20386;-73
2022/08/06 07:22:36;;;;;;;3.78;2.20;;;18.90;99.90;;;;;;5012076;28;20030;-73
2022/08/06 07:25:04;;;;;;;5.13;1.67;;;18.90;99.90;;;;;;4995280;28;20031;-73
2022/08/06 07:27:39;;;;;;;2.67;2.00;;;19.00;99.90;;;;;;4995295;28;20027;-73
2022/08/06 07:30:06;;;;;;;4.95;1.95;;;19.10;99.90;;;;;;4996562;28;20030;-73
2022/08/06 07:32:34;;;;;;;3.08;1.85;;;19.00;99.90;;;;;;4996621;28;20027;-73
2022/08/06 07:35:10;;;;;;;4.68;2.13;;;19.10;99.90;;;;;;5011624;28;20026;-73
2022/08/06 07:37:40;;;;;;;4.05;2.25;;;19.10;99.90;;;;;;4996537;28;20048;-73
2022/08/06 07:40:15;;;;;;;4.78;1.88;;;19.10;99.90;;;;;;4996812;28;20079;-73
2022/08/06 07:42:44;;;;;;;4.28;1.77;;;19.10;99.90;;;;;;4995394;28;20376;-73
2022/08/06 07:45:11;;;;;;;2.00;1.55;;;19.10;99.90;;;;;;4996519;28;20099;-73
2022/08/06 07:47:40;;;;;;;4.60;1.95;;;19.10;99.90;;;;;;4996401;28;20026;-73
2022/08/06 07:50:11;;;;;;;4.72;2.15;;;19.10;99.90;;;;;;4996019;28;20077;-73
2022/08/06 07:52:39;;;;;;;4.55;2.50;;;19.10;99.90;;;;;;4996105;28;20088;-73
2022/08/06 07:55:07;;;;;;;2.42;2.03;;;19.00;99.90;;;;;;4994870;28;20077;-72
2022/08/06 07:57:33;;;;;;;4.65;2.20;;;19.10;99.90;;;;;;4996305;28;20055;-73
2022/08/06 07:59:59;;;;;;;3.10;1.83;;;19.20;99.90;;;;;;4995844;28;20034;-73
2022/08/06 08:02:25;;;;;;;4.97;1.90;;;19.40;99.90;;;;;;4995588;28;20038;-73
2022/08/06 08:07:37;;;;;;;3.90;2.33;;;19.50;99.90;;;;;;4995287;28;20072;-72
2022/08/06 08:10:03;;;;;;;4.57;2.25;;;19.60;99.90;;;;;;5011383;28;20035;-73
2022/08/06 08:12:30;;;;;;;6.30;2.47;;;19.70;99.90;;;;;;4995769;28;20037;-73
2022/08/06 08:14:56;;;;;;;5.80;2.22;;;19.80;99.90;;;;;;4994881;28;20431;-73
2022/08/06 08:17:22;;;;;;;4.30;2.17;;;19.80;99.90;;;;;;4995704;28;20022;-73
2022/08/06 08:19:48;;;;;;;4.63;2.13;;;19.80;99.90;;;;;;4995654;28;20026;-73
2022/08/06 08:22:17;;;;;;;3.75;2.08;;;19.70;99.90;;;;;;4996088;28;20494;-73
2022/08/06 08:24:46;;;;;;;3.90;2.38;;;19.80;99.90;;;;;;4995769;28;20380;-72
2022/08/06 08:27:12;;;;;;;4.28;2.17;;;19.80;99.90;;;;;;4994261;28;20081;-72
2022/08/06 08:29:39;;;;;;;3.80;1.80;;;20.00;99.90;;;;;;4995500;28;20040;-73
2022/08/06 08:32:08;;;;;;;3.90;2.15;;;20.10;99.90;;;;;;4995688;28;20034;-73
2022/08/06 08:34:35;;;;;;;3.75;2.15;;;20.20;99.90;;;;;;4994542;28;20027;-73
2022/08/06 08:37:02;;;;;;;3.35;2.10;;;20.30;99.90;;;;;;4994694;28;20030;-72
2022/08/06 08:39:27;;;;;;;3.08;2.50;;;20.30;99.90;;;;;;4994497;28;20026;-72
2022/08/06 08:42:08;;;;;;;2.72;2.25;;;20.30;99.90;;;;;;4995155;28;20061;-73
2022/08/06 08:44:35;;;;;;;4.25;2.45;;;20.30;99.90;;;;;;4995070;28;20030;-74
2022/08/06 08:47:02;;;;;;;2.65;2.00;;;20.40;99.90;;;;;;4994707;28;20077;-73
2022/08/06 08:49:38;;;;;;;3.67;1.80;;;20.40;99.90;;;;;;4993561;28;20026;-73
2022/08/06 08:52:12;;;;;;;3.55;2.42;;;20.40;99.60;;;;;;4993291;28;20037;-73
2022/08/06 08:54:41;;;;;;;2.75;2.03;;;20.40;99.90;;;;;;4994778;28;20113;-73
2022/08/06 08:57:08;;;;;;;3.15;2.35;;;20.40;99.80;;;;;;4994506;28;20061;-73
2022/08/06 08:59:36;;;;;;;5.60;3.42;;;20.40;99.50;;;;;;4994524;28;20444;-73
2022/08/06 09:02:03;;;;;;;3.15;2.17;;;20.50;99.60;;;;;;4993937;28;20022;-73
2022/08/06 09:04:31;;;;;;;5.07;2.35;;;20.40;99.30;;;;;;4994607;28;20026;-73
2022/08/06 09:06:57;;;;;;;3.25;1.92;;;20.40;99.20;;;;;;4992560;28;20034;-73
2022/08/06 09:09:24;;;;;;;4.93;2.30;;;20.40;99.20;;;;;;4994169;28;20022;-72
2022/08/06 09:11:50;;;;;;;4.22;1.80;;;20.40;99.30;;;;;;4993766;28;20041;-73
2022/08/06 09:14:16;;;;;;;3.10;1.95;;;20.40;99.30;;;;;;4994897;28;20030;-73
2022/08/06 09:16:41;;;;;;;4.30;2.55;;;20.50;99.30;;;;;;4994574;28;20022;-73
2022/08/06 09:19:07;;;;;;;4.30;2.28;;;20.40;99.10;;;;;;4993497;28;20031;-73
2022/08/06 09:21:33;;;;;;;5.97;2.30;;;20.40;98.70;;;;;;4994082;28;20422;-72
2022/08/06 09:23:59;;;;;;;2.42;2.03;;;20.40;98.70;;;;;;4994052;28;20079;-73
2022/08/06 09:26:25;;;;;;;3.40;1.60;;;20.30;98.80;;;;;;4994580;28;20019;-74
2022/08/06 09:28:51;;;;;;;5.90;2.13;;;20.40;99.00;;;;;;4997490;28;20046;-73
2022/08/06 09:31:19;;;;;;;3.88;2.60;;;20.40;98.60;;;;;;4992976;28;20031;-72
2022/08/06 09:33:57;;;;;;;5.00;2.42;;;20.50;98.70;;;;;;4989897;28;20034;-73
2022/08/06 09:36:23;;;;;;;2.30;1.92;;;20.50;98.50;;;;;;4987357;28;20045;-73
2022/08/06 09:38:57;;;;;;;3.40;1.80;;;20.50;98.40;;;;;;5005633;28;20469;-73
2022/08/06 09:41:25;;;;;;;6.18;2.20;;;20.60;98.60;;;;;;4993807;28;20053;-73
2022/08/06 09:43:54;;;;;;;4.72;2.58;;;20.60;98.60;;;;;;4992569;28;20038;-73
2022/08/06 09:46:42;;;;;;;2.75;2.45;;;20.60;98.30;;;;;;4993070;28;20121;-72
2022/08/06 09:49:10;;;;;;;4.30;2.65;;;20.60;98.10;;;;;;4992573;28;20034;-72
2022/08/06 09:51:37;;;;;;;7.32;2.92;;;20.60;98.00;;;;;;4992980;28;20034;-74
2022/08/06 09:54:05;;;;;;;6.22;3.25;;;20.70;98.70;;;;;;5000709;28;20119;-71
2022/08/06 09:56:32;;;;;;;7.10;2.55;;;20.80;98.00;;;;;;5009765;28;20097;-69
2022/08/06 09:59:06;;;;;;;5.15;2.72;;;20.80;97.50;;;;;;4992346;28;20077;-70
2022/08/06 10:01:47;;;;;;;5.00;2.75;;;20.70;96.60;;;;;;4994016;28;20434;-73
2022/08/06 10:04:23;;;;;;;3.63;2.05;;;20.70;96.40;;;;;;4988606;28;20034;-73
2022/08/06 10:06:54;;;;;;;7.00;3.33;;;20.80;96.70;;;;;;4993921;28;20045;-73
2022/08/06 10:09:22;;;;;;;4.95;2.30;;;20.90;96.80;;;;;;4992530;28;20045;-74
2022/08/06 10:11:48;;;;;;;3.53;2.13;;;20.90;97.10;;;;;;5007469;28;20030;-72
2022/08/06 10:14:22;;;;;;;4.05;2.60;;;21.00;97.00;;;;;;5013630;28;20360;-71
2022/08/06 10:17:07;;;;;;;4.32;2.75;;;21.10;96.80;;;;;;5013752;28;20048;-70
2022/08/06 10:19:33;;;;;;;5.65;3.35;;;21.20;96.20;;;;;;5013506;28;20025;-71
2022/08/06 10:22:12;;;;;;;3.03;2.45;;;21.20;96.20;;;;;;5013384;28;20029;-72
2022/08/06 10:24:42;;;;;;;6.07;2.35;;;21.10;96.10;;;;;;5014004;28;20101;-72
2022/08/06 10:27:11;;;;;;;5.57;2.45;;;21.20;96.10;;;;;;5002374;28;20038;-72
2022/08/06 10:29:48;;;;;;;4.47;2.67;;;21.20;95.70;;;;;;4993572;28;20041;-72
2022/08/06 10:32:16;;;;;;;7.10;2.70;;;21.20;95.30;;;;;;4992326;28;20165;-72
2022/08/06 10:34:48;;;;;;;4.47;2.60;;;21.20;94.90;;;;;;4993539;28;20026;-72
2022/08/06 10:37:17;;;;;;;6.57;3.38;;;21.20;95.00;;;;;;4993307;28;20030;-71
2022/08/06 10:39:48;;;;;;;3.53;2.10;;;21.20;95.20;;;;;;4992087;28;20025;-71
2022/08/06 10:42:15;;;;;;;6.53;3.25;;;21.40;95.10;;;;;;4993246;28;20026;-72
2022/08/06 10:44:42;;;;;;;5.95;2.85;;;21.40;94.70;;;;;;4991481;28;20431;-72
2022/08/06 10:47:07;;;;;;;11.68;5.20;;;21.40;94.50;;;;;;4991979;28;20061;-71
2022/08/06 10:49:34;;;;;;;6.55;3.28;;;21.50;93.90;;;;;;4993553;28;20026;-72
2022/08/06 10:52:00;;;;;;;5.28;2.20;;;21.50;93.40;;;;;;4993445;28;20038;-71
2022/08/06 10:54:26;;;;;;;4.38;2.80;;;21.60;93.40;;;;;;4993880;28;20479;-72
2022/08/06 10:56:54;;;;;;;2.28;2.00;;;21.70;93.30;;;;;;4993722;28;20487;-72
2022/08/06 10:59:20;;;;;;;4.47;2.00;;;21.70;92.50;;;;;;4992559;28;20025;-72
2022/08/06 11:02:07;;;;;;;1.90;1.58;;;21.70;92.40;;;;;;4993361;28;20038;-72
2022/08/06 11:04:55;;;;;;;4.97;1.73;;;21.70;91.60;;;;;;4992040;28;20030;-71
2022/08/06 11:07:55;;;;;;;3.78;2.20;;;21.70;91.70;;;;;;4992266;28;20042;-72
2022/08/06 11:10:37;;;;;;;4.43;1.83;;;21.70;91.90;;;;;;4993475;28;20528;-72
2022/08/06 11:13:23;;;;;;;4.75;2.05;;;21.70;91.50;;;;;;4991553;28;20042;-72
2022/08/06 11:15:50;;;;;;;6.68;3.00;;;21.60;91.70;;;;;;4993340;28;20029;-72
2022/08/06 11:18:17;;;;;;;8.07;2.55;;;21.60;91.30;;;;;;4991575;28;20023;-72
2022/08/06 11:20:47;;;;;;;3.58;1.73;;;21.60;91.30;;;;;;4992947;28;20061;-72
2022/08/06 11:23:13;;;;;;;6.15;2.17;;;21.60;91.10;;;;;;4991398;28;20026;-72
2022/08/06 11:25:45;;;;;;;3.97;2.30;;;21.70;91.00;;;;;;4993489;28;20038;-75
2022/08/06 11:28:15;;;;;;;5.13;1.60;;;21.70;91.00;;;;;;4995003;28;20029;-73
2022/08/06 11:30:47;;;;;;;3.97;2.10;;;21.80;90.80;;;;;;4996416;28;20033;-72
2022/08/06 11:33:17;;;;;;;1.85;1.55;;;21.90;90.30;;;;;;4996005;28;20483;-72
2022/08/06 11:35:45;;;;;;;3.35;1.65;;;21.80;90.40;;;;;;4996084;28;20015;-72
2022/08/06 11:38:13;;;;;;;3.22;1.73;;;21.80;90.10;;;;;;4996040;28;20042;-72
2022/08/06 11:41:00;;;;;;;1.98;1.58;;;21.90;90.20;;;;;;4994813;28;20114;-73
2022/08/06 11:43:47;;;;;;;4.22;2.10;;;21.90;89.80;;;;;;4996714;28;20105;-72
2022/08/06 11:46:28;;;;;;;2.08;1.73;;;21.90;89.50;;;;;;4997314;28;20022;-72
2022/08/06 11:49:00;;;;;;;3.63;1.27;;;21.90;89.60;;;;;;4996455;28;20031;-72
2022/08/06 11:51:42;;;;;;;1.52;1.30;;;22.00;89.50;;;;;;4996234;28;20034;-72
2022/08/06 11:54:12;;;;;;;10.18;1.42;;;22.10;89.30;;;;;;4995025;28;20061;-72
2022/08/06 11:57:12;;;;;;;4.30;1.60;;;22.20;87.80;;;;;;4994918;28;20022;-72
2022/08/06 11:59:49;;;;;;;4.28;1.60;;;22.20;87.80;;;;;;4994768;28;20070;-73
2022/08/06 12:02:41;;;;;;;12.43;1.65;;;22.20;86.60;;;;;;4995989;28;20030;-72
2022/08/06 12:05:26;;;;;;;2.70;1.95;;;22.30;86.40;;;;;;4996297;28;20034;-72
2022/08/06 12:08:14;;;;;;;5.32;1.67;;;22.40;86.50;;;;;;4995644;28;20451;-72
2022/08/06 12:10:39;;;;;;;2.47;1.90;;;22.40;86.10;;;;;;4996047;28;20471;-72
2022/08/06 12:13:38;;;;;;;5.72;2.20;;;22.50;85.50;;;;;;4995608;28;20057;-73
2022/08/06 12:16:04;;;;;;;5.43;2.00;;;22.60;85.30;;;;;;4994676;28;20081;-72
2022/08/06 12:18:38;;;;;;;1.77;1.40;;;22.70;85.30;;;;;;4995770;28;20026;-72
2022/08/06 12:21:09;;;;;;;2.92;1.40;;;22.80;84.70;;;;;;4995519;28;20030;-72
2022/08/06 12:23:35;;;;;;;3.28;1.50;;;22.90;83.60;;;;;;4995772;28;20034;-73
2022/08/06 12:26:01;;;;;;;3.70;1.40;;;23.00;84.00;;;;;;4994414;28;20031;-72
2022/08/06 12:28:33;;;;;;;4.05;1.30;;;23.10;83.50;;;;;;4995388;28;20085;-73
2022/08/06 12:30:59;;;;;;;2.17;1.20;;;23.10;83.60;;;;;;4995468;28;20058;-73
2022/08/06 12:33:24;;;;;;;3.40;1.30;;;23.00;83.10;;;;;;4995468;28;20026;-73
2022/08/06 12:36:00;;;;;;;4.15;1.30;;;22.90;83.40;;;;;;4994618;28;20046;-72
2022/08/06 12:38:29;;;;;;;3.50;1.23;;;22.90;83.20;;;;;;5002656;23;20041;-75
2022/08/06 12:41:06;;;;;;;3.45;1.48;;;23.00;83.40;;;;;;4992494;28;20023;-75
2022/08/06 12:43:33;;;;;;;4.65;1.48;;;22.90;82.60;;;;;;4992095;28;20032;-75
2022/08/06 12:46:03;;;;;;;2.97;1.40;;;22.80;82.90;;;;;;4989500;28;20038;-75
2022/08/06 12:48:30;;;;;;;5.13;1.45;;;22.80;82.70;;;;;;4991539;28;20030;-75
2022/08/06 12:51:11;;;;;;;4.28;1.50;;;22.80;83.80;;;;;;4989043;28;20047;-75
2022/08/06 12:53:57;;;;;;;3.47;1.92;;;22.90;82.60;;;;;;4987896;28;20022;-75
2022/08/06 12:56:24;;;;;;;2.80;1.35;;;23.00;82.40;;;;;;4991036;28;20046;-75
2022/08/06 12:58:52;;;;;;;3.38;1.30;;;23.10;81.20;;;;;;4990084;28;20053;-75
2022/08/06 13:01:21;;;;;;;2.67;1.45;;;23.20;80.80;;;;;;4991584;28;20022;-75
2022/08/06 13:03:50;;;;;;;5.38;1.45;;;23.20;79.60;;;;;;4993278;28;20506;-74
2022/08/06 13:06:19;;;;;;;2.17;1.05;;;23.40;79.70;;;;;;4994448;28;20022;-75
2022/08/06 13:08:47;;;;;;;1.42;1.10;;;23.50;79.20;;;;;;4987421;28;20035;-75